createdAt,value
2023-01-06T18:21:39.625Z,100804.27
2023-01-06T18:25:22.467Z,100802.23
2023-01-06T18:29:22.427Z,100811.95
2023-01-06T18:33:18.822Z,100817.52
2023-01-06T18:36:36.916Z,100811.14
2023-01-06T18:40:19.071Z,100799.55
2023-01-06T18:43:58.205Z,100803.79
2023-01-06T18:47:37.450Z,100818.17
2023-01-06T18:54:24.501Z,100811.95
2023-01-06T18:57:46.049Z,100810.02
2023-01-06T19:01:32.616Z,100821.69
2023-01-06T19:05:12.962Z,100810.92
2023-01-06T19:09:25.746Z,100808.89
2023-01-06T19:12:32.897Z,100805.17
2023-01-06T19:16:30.490Z,100807.34
2023-01-06T19:20:16.574Z,100804.08
2023-01-06T19:23:53.487Z,100807.15
2023-01-06T19:27:33.066Z,100798.05
2023-01-06T19:31:22.398Z,100796.92
2023-01-06T19:35:24.884Z,100793.48
2023-01-06T19:38:41.940Z,100792.83
2023-01-06T19:42:29.681Z,100786.08
2023-01-06T19:46:38.746Z,100769.43
2023-01-06T19:50:22.074Z,100772.58
2023-01-06T19:54:02.703Z,100775.52
2023-01-06T19:57:43.605Z,100764.27
2023-01-06T20:01:39.271Z,100772.33
2023-01-06T20:04:58.308Z,100770.59
2023-01-06T20:08:35.896Z,100781.95
2023-01-06T20:12:13.524Z,100771.05
2023-01-06T20:15:51.363Z,100765.45
2023-01-06T20:19:28.991Z,100757.23
2023-01-06T20:23:08.150Z,100759.98
2023-01-06T20:26:45.135Z,100772.02
2023-01-06T20:30:23.425Z,100771.05
2023-01-06T20:34:00.723Z,100766.95
2023-01-06T20:37:39.928Z,100771.95
2023-01-06T20:41:16.916Z,100769.80
2023-01-06T20:44:54.595Z,100772.63
2023-01-06T20:48:32.445Z,100778.04
2023-01-06T20:52:10.052Z,100782.05
2023-01-06T20:55:48.626Z,100776.10
2023-01-06T20:59:28.162Z,100773.38
2023-01-06T21:03:05.654Z,100775.29
2023-01-06T21:06:42.605Z,100767.29
2023-01-06T21:10:20.371Z,100767.50
2023-01-06T21:14:01.775Z,100770.96
2023-01-06T21:17:39.567Z,100766.37
2023-01-06T21:21:17.793Z,100769.11
2023-01-06T21:24:55.692Z,100764.00
2023-01-06T21:28:34.210Z,100767.80
2023-01-06T21:32:11.406Z,100770.75
2023-01-06T21:35:50.233Z,100769.73
2023-01-06T21:39:26.921Z,100771.29
2023-01-06T21:43:10.692Z,100774.06
2023-01-06T21:46:47.458Z,100784.41
2023-01-06T21:50:26.887Z,100788.39
2023-01-06T21:54:05.201Z,100787.41
2023-01-06T21:57:43.202Z,100786.59
2023-01-06T22:01:19.995Z,100783.35
2023-01-06T22:04:57.756Z,100782.36
2023-01-06T22:08:35.371Z,100780.52
2023-01-06T22:12:15.845Z,100786.23
2023-01-06T22:15:53.770Z,100792.09
2023-01-06T22:19:31.980Z,100789.70
2023-01-06T22:23:31.278Z,100800.39
2023-01-06T22:26:46.380Z,100807.79
2023-01-06T22:30:24.792Z,100800.26
2023-01-06T22:34:02.349Z,100806.48
2023-01-06T22:37:40.119Z,100810.10
2023-01-06T22:41:17.263Z,100824.39
2023-01-06T22:44:55.403Z,100824.25
2023-01-06T22:48:34.001Z,100829.06
2023-01-06T22:52:11.324Z,100832.70
2023-01-06T22:56:10.399Z,100827.54
2023-01-06T22:59:26.227Z,100831.50
2023-01-06T23:03:06.110Z,100841.83
2023-01-06T23:06:42.871Z,100843.73
2023-01-06T23:10:20.694Z,100842.85
2023-01-06T23:13:59.409Z,100849.91
2023-01-06T23:17:37.323Z,100850.08
2023-01-06T23:21:19.902Z,100866.95
2023-01-06T23:24:58.036Z,100865.55
2023-01-06T23:28:37.282Z,100873.12
2023-01-06T23:32:33.844Z,100873.96
2023-01-06T23:35:51.764Z,100878.96
2023-01-06T23:39:29.405Z,100881.53
2023-01-06T23:43:07.178Z,100888.08
2023-01-06T23:46:45.536Z,100888.41
2023-01-06T23:50:22.593Z,100887.20
2023-01-06T23:54:01.644Z,100891.49
2023-01-06T23:57:38.680Z,100896.16
